Christchurch, New Zealand
Current Conditions -  °F | °C
As of 11:00 PM on Sunday 21 Dec 2014 (Local Time) from NZCH Reporting Station
Overcast Overcast  
Wind Chill: 54°   Ceiling: 1000
Heat Index: 54°   Visibility: 6mi
Dew Point: 52°   Wind: 6mph
Humidity: 94%   Direction: 250°WSW
Pressure: 29.97"   Gusts: NA
Location:  43.53°S, 172.64°E
Report Text: NZCH 211100Z AUTO 25005KT 9999 OVC010/// 12/11 Q1015 BECMGSCT014 BKN020 TEMPO 7000 SHRA BKN009
Loading
Personal Weather Stations






























Interactive Weather Map New forecast layout! Learn more

10-Day Weather Forecast

Advertisements
Track Severe Weather on mobile